Golden Bear — WQZ5884 — position and weather

sailwx.info

Track history (hours):
 
Tides and Currents Weather Stations Pressure Air Temp Water Temp Dewpoint Dewpoint Depression Visibility Wind Speed Wind Dir Waves Ship Positions

Golden Bear

Owner: BLUE & GOLD FLEET, SAN FRANCISCO, CA. More information available from US FCC via Universal Licensing System and Coast Guard Vessel Documentation Center.

Last reported at 2018-Jun-24 05:07 UTC. Time now 2018-Jun-24 07:26 UTC.
Position N 37°49' W 122°25'.

Length 29 m; draft 3 m.

Type: Passenger vessel. MMSI: 366976780.

Date/timePositionNaut miles runAvg speedWind from/ knotsBaromVisibWave heightAir tempDewpointWater temp
2018-Jun-24 05:07N 37°49' W 122°25'0 0.1
2018-Jun-24 05:00N 37°49' W 122°25'4 8.7
2018-Jun-24 04:30N 37°52' W 122°27'1 2.9
2018-Jun-24 04:00N 37°51' W 122°29'3 6.3
2018-Jun-24 03:30N 37°49' W 122°26'1 2.1
2018-Jun-24 03:01N 37°49' W 122°25'3 6.9
2018-Jun-24 02:31N 37°52' W 122°27'1 1.3
2018-Jun-24 02:00N 37°52' W 122°27'4 8.2
2018-Jun-24 01:30N 37°49' W 122°25'0 0.0
2018-Jun-24 00:57N 37°49' W 122°25'0 0.4
2018-Jun-24 00:30N 37°49' W 122°25'4 7.2
2018-Jun-24 00:00N 37°52' W 122°27'1 2.0
2018-Jun-23 23:30N 37°51' W 122°27'3 5.4
2018-Jun-23 23:00N 37°49' W 122°25'0 0.0
2018-Jun-23 22:30N 37°49' W 122°25'0 0.0
2018-Jun-23 22:00N 37°49' W 122°25'0 0.0
2018-Jun-23 21:30N 37°49' W 122°25'0 0.0
2018-Jun-23 02:44N 37°49' W 122°25'0 0.1
2018-Jun-23 02:31N 37°49' W 122°25'3 6.4
2018-Jun-23 02:00N 37°49' W 122°29'3 6.4
2018-Jun-23 01:31N 37°49' W 122°25'0 0.0
2018-Jun-23 01:01N 37°49' W 122°25'0 0.0
2018-Jun-23 00:31N 37°49' W 122°25'1 1.6
2018-Jun-23 00:01N 37°48' W 122°24'2 3.5
2018-Jun-22 23:31N 37°50' W 122°25'1 2.2
2018-Jun-22 23:00N 37°49' W 122°26'1 2.7
2018-Jun-22 22:31N 37°49' W 122°25'2 4.4
2018-Jun-22 22:00N 37°49' W 122°27'2 4.6
2018-Jun-22 21:30N 37°49' W 122°25'0 0.0
2018-Jun-22 21:00N 37°49' W 122°25'0 0.0
2018-Jun-22 20:30N 37°49' W 122°25'2 4.2
2018-Jun-22 20:01N 37°49' W 122°27'2 4.2
2018-Jun-22 19:31N 37°49' W 122°25'0 0.0
2018-Jun-22 16:00N 37°49' W 122°25'0 0.0
2018-Jun-22 15:30N 37°49' W 122°25'0 0.0
2018-Jun-22 15:00N 37°49' W 122°25'0 0.0
2018-Jun-22 02:33N 37°49' W 122°25'0 0.0
2018-Jun-22 02:30N 37°49' W 122°25'3 5.6
2018-Jun-22 02:00N 37°49' W 122°28'3 5.6
2018-Jun-22 01:31N 37°49' W 122°25'0 0.0
2018-Jun-22 01:00N 37°49' W 122°25'0 0.0
2018-Jun-22 00:30N 37°49' W 122°25'1 1.4
2018-Jun-22 00:00N 37°48' W 122°24'2 3.7
2018-Jun-21 23:31N 37°50' W 122°25'1 2.4
2018-Jun-21 23:00N 37°49' W 122°26'1 2.8
2018-Jun-21 22:30N 37°49' W 122°25'3 5.8
2018-Jun-21 22:00N 37°49' W 122°28'3 5.8
2018-Jun-21 21:30N 37°49' W 122°25'0 0.0
2018-Jun-21 21:00N 37°49' W 122°25'0 0.0
2018-Jun-21 20:29N 37°49' W 122°25'2 4.9
2018-Jun-21 20:01N 37°49' W 122°27'2 4.7
2018-Jun-21 19:31N 37°49' W 122°25'0 0.0
2018-Jun-21 19:01N 37°49' W 122°25'0 0.0
2018-Jun-21 02:51N 37°49' W 122°25'2 6.0
2018-Jun-21 02:31N 37°50' W 122°27'2 4.3
2018-Jun-21 02:00N 37°49' W 122°25'0 0.0
2018-Jun-21 01:31N 37°49' W 122°25'2 4.3
2018-Jun-21 01:00N 37°50' W 122°27'2 4.4
2018-Jun-21 00:30N 37°49' W 122°25'1 1.1
2018-Jun-21 00:00N 37°49' W 122°24'2 3.5
2018-Jun-20 23:30N 37°49' W 122°27'2 3.2
2018-Jun-20 23:01N 37°49' W 122°25'0 0.0
2018-Jun-20 22:30N 37°49' W 122°25'1 1.5
2018-Jun-20 22:00N 37°48' W 122°24'2 3.1
2018-Jun-20 21:30N 37°49' W 122°25'1 2.9
2018-Jun-20 21:00N 37°49' W 122°27'2 3.3
2018-Jun-20 20:30N 37°49' W 122°25'0 0.0
2018-Jun-20 20:00N 37°49' W 122°25'2 4.4
2018-Jun-20 19:31N 37°50' W 122°27'2 4.4
2018-Jun-20 19:00N 37°49' W 122°25'0 1.0
2018-Jun-20 18:30N 37°49' W 122°25'2 4.1
2018-Jun-20 18:00N 37°49' W 122°28'2 4.6
2018-Jun-20 17:31N 37°49' W 122°25'0 0.0
2018-Jun-20 02:00N 37°49' W 122°25'2 4.8
2018-Jun-20 01:30N 37°50' W 122°27'2 4.5
2018-Jun-20 00:59N 37°49' W 122°25'1 1.3
2018-Jun-20 00:30N 37°49' W 122°25'2 3.0
2018-Jun-20 00:00N 37°49' W 122°27'2 3.3
2018-Jun-19 23:30N 37°49' W 122°25'0 0.0
2018-Jun-19 23:00N 37°49' W 122°25'3 6.5
2018-Jun-19 22:30N 37°49' W 122°29'3 6.5
2018-Jun-19 22:00N 37°49' W 122°25'0 0.0
2018-Jun-19 21:30N 37°49' W 122°25'0 0.0
2018-Jun-19 21:01N 37°49' W 122°25'2 4.9
2018-Jun-19 20:30N 37°49' W 122°28'2 4.9
2018-Jun-19 20:00N 37°49' W 122°25'1 1.3
2018-Jun-19 19:30N 37°48' W 122°24'2 3.6
2018-Jun-19 18:59N 37°50' W 122°25'2 3.4
2018-Jun-19 18:31N 37°49' W 122°27'2 3.9
2018-Jun-19 18:00N 37°49' W 122°25'0 0.0
2018-Jun-19 02:54N 37°49' W 122°25'2 5.1
2018-Jun-19 02:30N 37°50' W 122°27'2 4.1
2018-Jun-19 02:00N 37°49' W 122°25'0 0.0
2018-Jun-19 01:30N 37°49' W 122°25'2 4.3
2018-Jun-19 01:00N 37°49' W 122°27'2 4.3
2018-Jun-19 00:30N 37°49' W 122°25'1 1.5
2018-Jun-19 00:00N 37°49' W 122°25'1 3.0
2018-Jun-18 23:30N 37°49' W 122°27'2 0.3
2018-Jun-18 17:38N 37°49' W 122°25'0 0.0
2018-Jun-18 17:30N 37°49' W 122°25'0 0.0
2018-Jun-18 01:55N 37°49' W 122°25'2 4.3
2018-Jun-18 01:30N 37°49' W 122°27'2 3.6
2018-Jun-18 01:00N 37°49' W 122°25'1 1.2
2018-Jun-18 00:30N 37°49' W 122°25'2 4.2
2018-Jun-18 00:00N 37°49' W 122°27'2 4.1
2018-Jun-17 23:30N 37°49' W 122°25'0 0.0
2018-Jun-17 23:00N 37°49' W 122°25'3 6.3
2018-Jun-17 22:30N 37°49' W 122°29'3 6.3
2018-Jun-17 22:00N 37°49' W 122°25'0 0.0
2018-Jun-17 21:30N 37°49' W 122°25'0 0.0
2018-Jun-17 21:00N 37°49' W 122°25'3 6.4
2018-Jun-17 20:30N 37°49' W 122°29'3 6.4
2018-Jun-17 20:00N 37°49' W 122°25'1 1.2
2018-Jun-17 19:30N 37°49' W 122°24'2 3.9
2018-Jun-17 19:00N 37°50' W 122°25'1 2.8
2018-Jun-17 18:30N 37°49' W 122°27'2 0.1
2018-Jun-17 05:11N 37°49' W 122°25'0 1.1
2018-Jun-17 05:00N 37°49' W 122°25'4 8.3
2018-Jun-17 04:30N 37°52' W 122°27'1 2.9
2018-Jun-17 04:00N 37°51' W 122°29'3 6.1
2018-Jun-17 03:30N 37°49' W 122°26'1 2.4
2018-Jun-17 03:00N 37°49' W 122°25'3 6.9
2018-Jun-17 02:30N 37°52' W 122°27'1 1.3
2018-Jun-17 02:00N 37°52' W 122°27'4 8.1
2018-Jun-17 01:30N 37°49' W 122°25'0 0.0
2018-Jun-17 01:00N 37°49' W 122°25'0 0.0
2018-Jun-17 00:30N 37°49' W 122°25'3 5.3
2018-Jun-17 00:00N 37°51' W 122°26'1 2.9
2018-Jun-16 23:30N 37°52' W 122°27'4 8.1
2018-Jun-16 23:00N 37°49' W 122°25'0 0.0
2018-Jun-16 22:30N 37°49' W 122°25'0 0.0
2018-Jun-16 22:00N 37°49' W 122°25'0 0.0
2018-Jun-16 21:30N 37°49' W 122°25'0 0.0
2018-Jun-15 02:56N 37°49' W 122°25'1 1.7
2018-Jun-15 02:30N 37°49' W 122°25'2 3.8
2018-Jun-15 02:00N 37°49' W 122°27'2 3.8
2018-Jun-15 01:30N 37°49' W 122°25'0 0.0
2018-Jun-15 01:00N 37°49' W 122°25'0 0.0
2018-Jun-15 00:30N 37°49' W 122°25'1 1.2
2018-Jun-15 00:00N 37°49' W 122°24'2 3.4
2018-Jun-14 23:30N 37°50' W 122°26'1 2.6
2018-Jun-14 23:00N 37°49' W 122°27'2 3.3
2018-Jun-14 22:30N 37°49' W 122°25'2 4.3
2018-Jun-14 22:00N 37°50' W 122°27'2 4.3
2018-Jun-14 21:30N 37°49' W 122°25'0 0.0
2018-Jun-14 21:00N 37°49' W 122°25'0 0.0
2018-Jun-14 20:30N 37°49' W 122°25'3 5.3
2018-Jun-14 20:00N 37°49' W 122°28'3 5.3
2018-Jun-14 19:30N 37°49' W 122°25'0 0.0
2018-Jun-14 19:00N 37°49' W 122°25'  
Track history (hours):
 
Tides and Currents Weather Stations Pressure Air Temp Water Temp Dewpoint Dewpoint Depression Visibility Wind Speed Wind Dir Waves Ship Positions

Golden Bear

Owner: BLUE & GOLD FLEET, SAN FRANCISCO, CA. More information available from US FCC via Universal Licensing System and Coast Guard Vessel Documentation Center.

Last reported at 2018-Jun-24 05:07 UTC. Time now 2018-Jun-24 07:26 UTC.
Position N 37°49' W 122°25'.

Length 29 m; draft 3 m.

Type: Passenger vessel. MMSI: 366976780.

Date/timePositionNaut miles runAvg speedWind from/ knotsBaromVisibWave heightAir tempDewpointWater temp
2018-Jun-24 05:07N 37°49' W 122°25'0 0.1
2018-Jun-24 05:00N 37°49' W 122°25'4 8.7
2018-Jun-24 04:30N 37°52' W 122°27'1 2.9
2018-Jun-24 04:00N 37°51' W 122°29'3 6.3
2018-Jun-24 03:30N 37°49' W 122°26'1 2.1
2018-Jun-24 03:01N 37°49' W 122°25'3 6.9
2018-Jun-24 02:31N 37°52' W 122°27'1 1.3
2018-Jun-24 02:00N 37°52' W 122°27'4 8.2
2018-Jun-24 01:30N 37°49' W 122°25'0 0.0
2018-Jun-24 00:57N 37°49' W 122°25'0 0.4
2018-Jun-24 00:30N 37°49' W 122°25'4 7.2
2018-Jun-24 00:00N 37°52' W 122°27'1 2.0
2018-Jun-23 23:30N 37°51' W 122°27'3 5.4
2018-Jun-23 23:00N 37°49' W 122°25'0 0.0
2018-Jun-23 22:30N 37°49' W 122°25'0 0.0
2018-Jun-23 22:00N 37°49' W 122°25'0 0.0
2018-Jun-23 21:30N 37°49' W 122°25'0 0.0
2018-Jun-23 02:44N 37°49' W 122°25'0 0.1
2018-Jun-23 02:31N 37°49' W 122°25'3 6.4
2018-Jun-23 02:00N 37°49' W 122°29'3 6.4
2018-Jun-23 01:31N 37°49' W 122°25'0 0.0
2018-Jun-23 01:01N 37°49' W 122°25'0 0.0
2018-Jun-23 00:31N 37°49' W 122°25'1 1.6
2018-Jun-23 00:01N 37°48' W 122°24'2 3.5
2018-Jun-22 23:31N 37°50' W 122°25'1 2.2
2018-Jun-22 23:00N 37°49' W 122°26'1 2.7
2018-Jun-22 22:31N 37°49' W 122°25'2 4.4
2018-Jun-22 22:00N 37°49' W 122°27'2 4.6
2018-Jun-22 21:30N 37°49' W 122°25'0 0.0
2018-Jun-22 21:00N 37°49' W 122°25'0 0.0
2018-Jun-22 20:30N 37°49' W 122°25'2 4.2
2018-Jun-22 20:01N 37°49' W 122°27'2 4.2
2018-Jun-22 19:31N 37°49' W 122°25'0 0.0
2018-Jun-22 16:00N 37°49' W 122°25'0 0.0
2018-Jun-22 15:30N 37°49' W 122°25'0 0.0
2018-Jun-22 15:00N 37°49' W 122°25'0 0.0
2018-Jun-22 02:33N 37°49' W 122°25'0 0.0
2018-Jun-22 02:30N 37°49' W 122°25'3 5.6
2018-Jun-22 02:00N 37°49' W 122°28'3 5.6
2018-Jun-22 01:31N 37°49' W 122°25'0 0.0
2018-Jun-22 01:00N 37°49' W 122°25'0 0.0
2018-Jun-22 00:30N 37°49' W 122°25'1 1.4
2018-Jun-22 00:00N 37°48' W 122°24'2 3.7
2018-Jun-21 23:31N 37°50' W 122°25'1 2.4
2018-Jun-21 23:00N 37°49' W 122°26'1 2.8
2018-Jun-21 22:30N 37°49' W 122°25'3 5.8
2018-Jun-21 22:00N 37°49' W 122°28'3 5.8
2018-Jun-21 21:30N 37°49' W 122°25'0 0.0
2018-Jun-21 21:00N 37°49' W 122°25'0 0.0
2018-Jun-21 20:29N 37°49' W 122°25'2 4.9
2018-Jun-21 20:01N 37°49' W 122°27'2 4.7
2018-Jun-21 19:31N 37°49' W 122°25'0 0.0
2018-Jun-21 19:01N 37°49' W 122°25'0 0.0
2018-Jun-21 02:51N 37°49' W 122°25'2 6.0
2018-Jun-21 02:31N 37°50' W 122°27'2 4.3
2018-Jun-21 02:00N 37°49' W 122°25'0 0.0
2018-Jun-21 01:31N 37°49' W 122°25'2 4.3
2018-Jun-21 01:00N 37°50' W 122°27'2 4.4
2018-Jun-21 00:30N 37°49' W 122°25'1 1.1
2018-Jun-21 00:00N 37°49' W 122°24'2 3.5
2018-Jun-20 23:30N 37°49' W 122°27'2 3.2
2018-Jun-20 23:01N 37°49' W 122°25'0 0.0
2018-Jun-20 22:30N 37°49' W 122°25'1 1.5
2018-Jun-20 22:00N 37°48' W 122°24'2 3.1
2018-Jun-20 21:30N 37°49' W 122°25'1 2.9
2018-Jun-20 21:00N 37°49' W 122°27'2 3.3
2018-Jun-20 20:30N 37°49' W 122°25'0 0.0
2018-Jun-20 20:00N 37°49' W 122°25'2 4.4
2018-Jun-20 19:31N 37°50' W 122°27'2 4.4
2018-Jun-20 19:00N 37°49' W 122°25'0 1.0
2018-Jun-20 18:30N 37°49' W 122°25'2 4.1
2018-Jun-20 18:00N 37°49' W 122°28'2 4.6
2018-Jun-20 17:31N 37°49' W 122°25'0 0.0
2018-Jun-20 02:00N 37°49' W 122°25'2 4.8
2018-Jun-20 01:30N 37°50' W 122°27'2 4.5
2018-Jun-20 00:59N 37°49' W 122°25'1 1.3
2018-Jun-20 00:30N 37°49' W 122°25'2 3.0
2018-Jun-20 00:00N 37°49' W 122°27'2 3.3
2018-Jun-19 23:30N 37°49' W 122°25'0 0.0
2018-Jun-19 23:00N 37°49' W 122°25'3 6.5
2018-Jun-19 22:30N 37°49' W 122°29'3 6.5
2018-Jun-19 22:00N 37°49' W 122°25'0 0.0
2018-Jun-19 21:30N 37°49' W 122°25'0 0.0
2018-Jun-19 21:01N 37°49' W 122°25'2 4.9
2018-Jun-19 20:30N 37°49' W 122°28'2 4.9
2018-Jun-19 20:00N 37°49' W 122°25'1 1.3
2018-Jun-19 19:30N 37°48' W 122°24'2 3.6
2018-Jun-19 18:59N 37°50' W 122°25'2 3.4
2018-Jun-19 18:31N 37°49' W 122°27'2 3.9
2018-Jun-19 18:00N 37°49' W 122°25'0 0.0
2018-Jun-19 02:54N 37°49' W 122°25'2 5.1
2018-Jun-19 02:30N 37°50' W 122°27'2 4.1
2018-Jun-19 02:00N 37°49' W 122°25'0 0.0
2018-Jun-19 01:30N 37°49' W 122°25'2 4.3
2018-Jun-19 01:00N 37°49' W 122°27'2 4.3
2018-Jun-19 00:30N 37°49' W 122°25'1 1.5
2018-Jun-19 00:00N 37°49' W 122°25'1 3.0
2018-Jun-18 23:30N 37°49' W 122°27'2 0.3
2018-Jun-18 17:38N 37°49' W 122°25'0 0.0
2018-Jun-18 17:30N 37°49' W 122°25'0 0.0
2018-Jun-18 01:55N 37°49' W 122°25'2 4.3
2018-Jun-18 01:30N 37°49' W 122°27'2 3.6
2018-Jun-18 01:00N 37°49' W 122°25'1 1.2
2018-Jun-18 00:30N 37°49' W 122°25'2 4.2
2018-Jun-18 00:00N 37°49' W 122°27'2 4.1
2018-Jun-17 23:30N 37°49' W 122°25'0 0.0
2018-Jun-17 23:00N 37°49' W 122°25'3 6.3
2018-Jun-17 22:30N 37°49' W 122°29'3 6.3
2018-Jun-17 22:00N 37°49' W 122°25'0 0.0
2018-Jun-17 21:30N 37°49' W 122°25'0 0.0
2018-Jun-17 21:00N 37°49' W 122°25'3 6.4
2018-Jun-17 20:30N 37°49' W 122°29'3 6.4
2018-Jun-17 20:00N 37°49' W 122°25'1 1.2
2018-Jun-17 19:30N 37°49' W 122°24'2 3.9
2018-Jun-17 19:00N 37°50' W 122°25'1 2.8
2018-Jun-17 18:30N 37°49' W 122°27'2 0.1
2018-Jun-17 05:11N 37°49' W 122°25'0 1.1
2018-Jun-17 05:00N 37°49' W 122°25'4 8.3
2018-Jun-17 04:30N 37°52' W 122°27'1 2.9
2018-Jun-17 04:00N 37°51' W 122°29'3 6.1
2018-Jun-17 03:30N 37°49' W 122°26'1 2.4
2018-Jun-17 03:00N 37°49' W 122°25'3 6.9
2018-Jun-17 02:30N 37°52' W 122°27'1 1.3
2018-Jun-17 02:00N 37°52' W 122°27'4 8.1
2018-Jun-17 01:30N 37°49' W 122°25'0 0.0
2018-Jun-17 01:00N 37°49' W 122°25'0 0.0
2018-Jun-17 00:30N 37°49' W 122°25'3 5.3
2018-Jun-17 00:00N 37°51' W 122°26'1 2.9
2018-Jun-16 23:30N 37°52' W 122°27'4 8.1
2018-Jun-16 23:00N 37°49' W 122°25'0 0.0
2018-Jun-16 22:30N 37°49' W 122°25'0 0.0
2018-Jun-16 22:00N 37°49' W 122°25'0 0.0
2018-Jun-16 21:30N 37°49' W 122°25'0 0.0
2018-Jun-15 02:56N 37°49' W 122°25'1 1.7
2018-Jun-15 02:30N 37°49' W 122°25'2 3.8
2018-Jun-15 02:00N 37°49' W 122°27'2 3.8
2018-Jun-15 01:30N 37°49' W 122°25'0 0.0
2018-Jun-15 01:00N 37°49' W 122°25'0 0.0
2018-Jun-15 00:30N 37°49' W 122°25'1 1.2
2018-Jun-15 00:00N 37°49' W 122°24'2 3.4
2018-Jun-14 23:30N 37°50' W 122°26'1 2.6
2018-Jun-14 23:00N 37°49' W 122°27'2 3.3
2018-Jun-14 22:30N 37°49' W 122°25'2 4.3
2018-Jun-14 22:00N 37°50' W 122°27'2 4.3
2018-Jun-14 21:30N 37°49' W 122°25'0 0.0
2018-Jun-14 21:00N 37°49' W 122°25'0 0.0
2018-Jun-14 20:30N 37°49' W 122°25'3 5.3
2018-Jun-14 20:00N 37°49' W 122°28'3 5.3
2018-Jun-14 19:30N 37°49' W 122°25'0 0.0
2018-Jun-14 19:00N 37°49' W 122°25'  

Dump ship's entire track history